Upstream stations:
Downstream station:
SHEF ID: BRIO2 Canadian River at Bridgeport, OK
STATION TYPE:
Regulating: Stage = 15.00, Flow = 8545
STAGE RIV-FLOW
ft cfs
Ccp-Rev Ccp-Rev
(US/Central)
06/06 00:00 12.60 2190
06/06 01:00 12.58 2161
06/06 02:00 12.57 2146
06/06 03:00 12.56 2132
06/06 04:00 12.54 2103
06/06 05:00 12.52 2074
06/06 06:00 12.51 2060
06/06 07:00 12.90 2665
06/06 08:00 13.15 3111
06/06 09:00 13.12 3055
06/06 10:00 12.99 2820
06/06 11:00 12.94 2733
06/06 12:00 12.90 2665
06/06 13:00 12.89 2648
06/06 14:00 12.86 2598
06/06 15:00 12.85 2581
06/06 16:00 12.84 2565
06/06 17:00 12.83 2548
06/06 18:00 12.83 2548
06/06 19:00 12.77 2451
06/06 20:00 12.67 2295
06/06 21:00 12.63 2235
06/06 22:00 10.14 222
06/06 23:00 ---- ----